Time,TemperatureF,DewpointF,PressureIn,WindDirection,WindDirectionDegrees,WindSpeedMPH,WindSpeedGustMPH,Humidity,HourlyPrecipIn,Conditions,Clouds,dailyrainin,SoftwareType,DateUTC
2014-03-12 00:11:00,43.0,40.0,30.50,SE,129,0.0,0.0,90,0.00,,,0.01,,2014-03-12 07:11:00,
2014-03-12 00:22:00,41.0,38.0,30.50,ESE,112,0.0,1.0,90,0.00,,,0.01,,2014-03-12 07:22:00,
2014-03-12 00:42:00,40.0,38.0,30.49,NE,46,0.0,1.0,93,0.00,,,0.01,,2014-03-12 07:42:00,
2014-03-12 00:52:00,40.0,38.0,30.49,NE,47,0.0,0.0,93,0.00,,,0.01,,2014-03-12 07:52:00,
2014-03-12 01:23:00,39.0,37.0,30.48,NE,41,0.0,1.0,94,0.00,,,0.01,,2014-03-12 08:23:00,
2014-03-12 01:42:00,39.0,37.0,30.47,NE,44,1.0,1.0,94,0.00,,,0.01,,2014-03-12 08:42:00,
2014-03-12 01:52:00,39.0,38.0,30.47,NE,41,0.0,1.0,95,0.00,,,0.01,,2014-03-12 08:52:00,
2014-03-12 02:11:00,38.0,37.0,30.47,NE,41,0.0,0.0,95,0.00,,,0.01,,2014-03-12 09:11:00,
2014-03-12 02:22:00,38.0,37.0,30.47,NE,41,0.0,0.0,96,0.00,,,0.01,,2014-03-12 09:22:00,
2014-03-12 02:42:00,38.0,37.0,30.47,NE,43,0.0,0.0,96,0.00,,,0.01,,2014-03-12 09:42:00,
2014-03-12 02:53:00,38.0,37.0,30.47,NE,43,0.0,0.0,95,0.00,,,0.01,,2014-03-12 09:53:00,
2014-03-12 03:23:00,38.0,37.0,30.45,NE,41,0.0,1.0,96,0.00,,,0.01,,2014-03-12 10:23:00,
2014-03-12 03:42:00,37.0,36.0,30.45,NE,43,0.0,0.0,96,0.00,,,0.01,,2014-03-12 10:42:00,
2014-03-12 03:53:00,37.0,36.0,30.45,NE,49,0.0,1.0,97,0.00,,,0.01,,2014-03-12 10:53:00,
2014-03-12 04:22:00,36.0,35.0,30.45,ENE,64,0.0,0.0,97,0.00,,,0.01,,2014-03-12 11:22:00,
2014-03-12 04:42:00,36.0,35.0,30.44,SE,128,0.0,0.0,96,0.00,,,0.01,,2014-03-12 11:42:00,
2014-03-12 04:52:00,37.0,36.0,30.44,SE,127,0.0,0.0,97,0.00,,,0.01,,2014-03-12 11:52:00,
2014-03-12 05:22:00,36.0,35.0,30.43,East,99,0.0,0.0,97,0.00,,,0.00,,2014-03-12 12:22:00,
2014-03-12 05:42:00,36.0,35.0,30.43,NE,43,0.0,2.0,97,0.00,,,0.00,,2014-03-12 12:42:00,
2014-03-12 05:52:00,36.0,35.0,30.43,NE,41,0.0,0.0,97,0.00,,,0.00,,2014-03-12 12:52:00,
2014-03-12 06:11:00,36.0,35.0,30.42,NE,41,0.0,0.0,97,0.00,,,0.00,,2014-03-12 13:11:00,
2014-03-12 06:21:00,36.0,35.0,30.42,NE,41,0.0,0.0,97,0.00,,,0.00,,2014-03-12 13:21:00,
2014-03-12 06:42:00,36.0,35.0,30.42,NE,41,0.0,0.0,97,0.00,,,0.00,,2014-03-12 13:42:00,
2014-03-12 06:52:00,36.0,35.0,30.42,NE,41,0.0,0.0,97,0.00,,,0.00,,2014-03-12 13:52:00,
2014-03-12 07:11:00,35.0,34.0,30.42,NE,49,0.0,0.0,97,0.00,,,0.00,,2014-03-12 14:11:00,
2014-03-12 07:21:00,35.0,34.0,30.42,NNE,18,0.0,1.0,97,0.00,,,0.00,,2014-03-12 14:21:00,
2014-03-12 07:42:00,35.0,34.0,30.42,NW,315,0.0,0.0,98,0.00,,,0.00,,2014-03-12 14:42:00,
2014-03-12 07:52:00,35.0,34.0,30.42,NW,315,0.0,0.0,98,0.00,,,0.00,,2014-03-12 14:52:00,
2014-03-12 08:11:00,34.0,33.0,30.41,NNW,339,0.0,0.0,97,0.00,,,0.00,,2014-03-12 15:11:00,
2014-03-12 08:22:00,35.0,34.0,30.41,NNW,338,0.0,0.0,98,0.00,,,0.00,,2014-03-12 15:22:00,
2014-03-12 08:53:00,36.0,35.0,30.40,NE,44,0.0,0.0,98,0.00,,,0.00,,2014-03-12 15:53:00,
2014-03-12 09:12:00,39.0,38.0,30.40,NE,43,0.0,0.0,98,0.00,,,0.00,,2014-03-12 16:12:00,
2014-03-12 09:23:00,40.0,39.0,30.40,NE,43,0.0,0.0,98,0.00,,,0.00,,2014-03-12 16:23:00,
2014-03-12 09:43:00,42.0,41.0,30.40,ENE,67,0.0,0.0,97,0.00,,,0.00,,2014-03-12 16:43:00,
2014-03-12 09:53:00,43.0,41.0,30.40,East,86,0.0,0.0,94,0.00,,,0.00,,2014-03-12 16:53:00,
2014-03-12 10:12:00,43.0,40.0,30.40,SSW,210,0.0,1.0,90,0.00,,,0.00,,2014-03-12 17:12:00,
2014-03-12 10:22:00,44.0,41.0,30.39,WSW,238,0.0,0.0,88,0.00,,,0.00,,2014-03-12 17:22:00,
2014-03-12 10:43:00,45.0,40.0,30.39,SW,231,1.0,3.0,84,0.00,,,0.00,,2014-03-12 17:43:00,
2014-03-12 10:53:00,46.0,41.0,30.38,SSW,203,0.0,3.0,81,0.00,,,0.00,,2014-03-12 17:53:00,
2014-03-12 11:21:00,47.0,41.0,30.37,SSW,198,2.0,5.0,79,0.00,,,0.00,,2014-03-12 18:21:00,
2014-03-12 11:42:00,49.0,42.0,30.36,West,259,1.0,5.0,76,0.00,,,0.00,,2014-03-12 18:42:00,
2014-03-12 11:52:00,52.0,44.0,30.36,SW,226,0.0,5.0,73,0.00,,,0.00,,2014-03-12 18:52:00,
2014-03-12 12:11:00,52.0,43.0,30.35,West,269,1.0,4.0,72,0.00,,,0.00,,2014-03-12 19:11:00,
2014-03-12 12:21:00,51.0,42.0,30.35,West,265,4.0,8.0,72,0.00,,,0.00,,2014-03-12 19:21:00,
2014-03-12 12:42:00,51.0,43.0,30.35,WNW,301,3.0,8.0,73,0.00,,,0.00,,2014-03-12 19:42:00,
2014-03-12 12:52:00,52.0,43.0,30.35,WNW,294,4.0,8.0,70,0.00,,,0.00,,2014-03-12 19:52:00,
2014-03-12 13:22:00,53.0,42.0,30.34,WNW,301,4.0,9.0,67,0.00,,,0.00,,2014-03-12 20:22:00,
2014-03-12 13:42:00,54.0,43.0,30.33,West,264,3.0,10.0,65,0.00,,,0.00,,2014-03-12 20:42:00,
2014-03-12 13:52:00,54.0,43.0,30.33,WNW,293,3.0,10.0,65,0.00,,,0.00,,2014-03-12 20:52:00,
2014-03-12 14:22:00,55.0,43.0,30.32,WNW,285,2.0,7.0,63,0.00,,,0.00,,2014-03-12 21:22:00,
2014-03-12 14:43:00,56.0,43.0,30.31,WNW,298,2.0,7.0,62,0.00,,,0.00,,2014-03-12 21:43:00,
2014-03-12 14:54:00,57.0,42.0,30.29,WNW,285,2.0,5.0,58,0.00,,,0.00,,2014-03-12 21:54:00,
2014-03-12 15:23:00,58.0,40.0,30.27,South,169,2.0,6.0,51,0.00,,,0.00,,2014-03-12 22:23:00,
2014-03-12 15:43:00,58.0,38.0,30.27,SSE,158,2.0,8.0,48,0.00,,,0.00,,2014-03-12 22:43:00,
2014-03-12 15:53:00,60.0,40.0,30.26,WSW,257,1.0,6.0,47,0.00,,,0.00,,2014-03-12 22:53:00,
2014-03-12 16:12:00,61.0,38.0,30.26,SW,228,2.0,7.0,42,0.00,,,0.00,,2014-03-12 23:12:00,
2014-03-12 16:22:00,63.0,37.0,30.24,SSW,207,0.0,1.0,38,0.00,,,0.00,,2014-03-12 23:22:00,
2014-03-12 16:42:00,62.0,36.0,30.24,SSE,165,3.0,6.0,38,0.00,,,0.00,,2014-03-12 23:42:00,
2014-03-12 16:53:00,62.0,37.0,30.24,NNW,346,2.0,6.0,39,0.00,,,0.00,,2014-03-12 23:53:00,
2014-03-12 17:12:00,62.0,35.0,30.24,West,278,1.0,8.0,36,0.00,,,0.00,,2014-03-13 00:12:00,
2014-03-12 17:22:00,62.0,33.0,30.24,SW,219,3.0,11.0,33,0.00,,,0.00,,2014-03-13 00:22:00,
2014-03-12 17:42:00,61.0,32.0,30.24,West,262,2.0,8.0,34,0.00,,,0.00,,2014-03-13 00:42:00,
2014-03-12 17:53:00,61.0,35.0,30.22,West,278,4.0,7.0,37,0.00,,,0.00,,2014-03-13 00:53:00,
2014-03-12 18:12:00,61.0,33.0,30.22,WSW,252,2.0,8.0,35,0.00,,,0.00,,2014-03-13 01:12:00,
2014-03-12 18:22:00,60.0,31.0,30.22,SSE,167,2.0,5.0,33,0.00,,,0.00,,2014-03-13 01:22:00,
2014-03-12 18:53:00,58.0,29.0,30.22,SSW,208,2.0,4.0,33,0.00,,,0.00,,2014-03-13 01:53:00,
2014-03-12 19:22:00,57.0,34.0,30.22,NW,314,0.0,2.0,41,0.00,,,0.00,,2014-03-13 02:22:00,
2014-03-12 20:22:00,53.0,37.0,30.22,North,354,2.0,5.0,55,0.00,,,0.00,,2014-03-13 03:22:00,
2014-03-12 20:43:00,51.0,38.0,30.22,NE,44,1.0,1.0,60,0.00,,,0.00,,2014-03-13 03:43:00,
2014-03-12 20:53:00,51.0,38.0,30.22,North,352,0.0,0.0,61,0.00,,,0.00,,2014-03-13 03:53:00,
2014-03-12 21:13:00,51.0,36.0,30.22,NE,34,0.0,1.0,57,0.00,,,0.00,,2014-03-13 04:13:00,
2014-03-12 21:23:00,51.0,36.0,30.22,NE,50,0.0,1.0,57,0.00,,,0.00,,2014-03-13 04:23:00,
2014-03-12 21:43:00,49.0,36.0,30.21,NE,40,0.0,1.0,61,0.00,,,0.00,,2014-03-13 04:43:00,
2014-03-12 21:53:00,49.0,37.0,30.21,NE,39,0.0,1.0,62,0.00,,,0.00,,2014-03-13 04:53:00,
2014-03-12 22:22:00,48.0,37.0,30.21,ENE,70,0.0,1.0,65,0.00,,,0.00,,2014-03-13 05:22:00,
2014-03-12 22:43:00,47.0,36.0,30.22,ENE,60,0.0,1.0,66,0.00,,,0.00,,2014-03-13 05:43:00,
2014-03-12 22:52:00,46.0,35.0,30.22,NW,307,0.0,2.0,66,0.00,,,0.00,,2014-03-13 05:52:00,
2014-03-12 23:11:00,45.0,37.0,30.22,ENE,67,0.0,2.0,73,0.00,,,0.00,,2014-03-13 06:11:00,
2014-03-12 23:21:00,45.0,37.0,30.22,NE,38,1.0,3.0,74,0.00,,,0.00,,2014-03-13 06:21:00,